^^
Station Historical Data
Daily Summary for February 23, 2018 Units:  Metric    English   Both
« Previous Day
Next Day »
Daily Weekly Monthly Yearly Custom
  High: Low: Average:
Temperature: -17.8 °C 17.1 °C 22.7 °C
Dew Point: -17.8 °C 3.2 °C 11.6 °C
Humidity: Humidity% 22% 51%
Wind Speed: 0km/h -1609.1km/h -6.6km/h
Wind Gust: 0km/h - -
Wind- - ENE
Pressure: 0 hPa 999.5 hPa -
Precipitation: 0 mm    
Historical Graphs
 
 
Tabular Data for February 23, 2018
Time Temperature Dew Point Pressure Wind Wind Speed Wind Gust Humidity Rainfall Rate (Hourly) solar Conditions
-17.8 °C -17.8 °C 0 hPa Calm     Humidity% 0 mm SolarRadiationWatts/m^2 W/m2 Conditions
00:01 23.9 °C 11.9 °C 1002.9 hPa SW 13 km/h 17.7 km/h 47% 0 mm 0.0 W/m2
00:06 23.8 °C 11.8 °C 1002.6 hPa SW 14.3 km/h 19.3 km/h 47% 0 mm 0.0 W/m2
00:11 23.8 °C 11.8 °C 1002.6 hPa SSW 14.3 km/h 22.5 km/h 47% 0 mm 0.0 W/m2
00:16 23.8 °C 12.1 °C 1002.6 hPa SSW 14.3 km/h 19.3 km/h 48% 0 mm 0.0 W/m2
00:21 23.8 °C 12.1 °C 1002.6 hPa SSW 19.5 km/h 19.5 km/h 48% 0 mm 0.0 W/m2
00:26 23.8 °C 12.1 °C 1002.6 hPa SW 14.3 km/h 17.7 km/h 48% 0 mm 0.0 W/m2
00:31 23.7 °C 12 °C 1002.6 hPa SW 11.1 km/h 17.7 km/h 48% 0 mm 0.0 W/m2
00:37 23.6 °C 12.3 °C 1002.6 hPa SW 11.1 km/h 17.7 km/h 49% 0 mm 0.0 W/m2
00:42 23.5 °C 12.2 °C 1002.9 hPa SW 7.9 km/h 12.9 km/h 49% 0 mm 0.0 W/m2
00:52 23.3 °C 12 °C 1002.9 hPa SW 13 km/h 16.1 km/h 49% 0 mm 0.0 W/m2
00:57 23.2 °C 12.2 °C 1002.9 hPa SW 9.7 km/h 12.9 km/h 50% 0 mm 0.0 W/m2
01:02 23.2 °C 12.2 °C 1002.9 hPa SW 11.1 km/h 14.5 km/h 50% 0 mm 0.0 W/m2
01:07 23.2 °C 12.2 °C 1002.9 hPa SSW 11.1 km/h 14.5 km/h 50% 0 mm 0.0 W/m2
01:12 23.1 °C 12.1 °C 1002.6 hPa SSW 13 km/h 14.5 km/h 50% 0 mm 0.0 W/m2
01:17 23.1 °C 12.4 °C 1002.6 hPa SW 11.1 km/h 17.7 km/h 51% 0 mm 0.0 W/m2
01:22 23.1 °C 12.4 °C 1002.6 hPa SW 9.7 km/h 16.1 km/h 51% 0 mm 0.0 W/m2
01:27 23.1 °C 12.4 °C 1002.6 hPa SW 13 km/h 16.1 km/h 51% 0 mm 0.0 W/m2
01:32 23 °C 12.3 °C 1002.6 hPa SW 9.7 km/h 14.5 km/h 51% 0 mm 0.0 W/m2
01:37 23 °C 12.3 °C 1002.6 hPa SW 14.3 km/h 17.7 km/h 51% 0 mm 0.0 W/m2
01:42 23 °C 12.3 °C 1002.9 hPa SW 14.3 km/h 16.1 km/h 51% 0 mm 0.0 W/m2
01:47 22.8 °C 12.1 °C 1002.6 hPa SW 14.3 km/h 17.7 km/h 51% 0 mm 0.0 W/m2
01:53 22.8 °C 12.1 °C 1002.6 hPa SW 11.1 km/h 19.3 km/h 51% 0 mm 0.0 W/m2
01:58 22.7 °C 12 °C 1002.3 hPa SSW 13 km/h 17.7 km/h 51% 0 mm 0.0 W/m2
02:03 22.7 °C 12.3 °C 1001.9 hPa SSW 9.7 km/h 11.3 km/h 52% 0 mm 0.0 W/m2
02:09 22.7 °C 12.3 °C 1001.9 hPa SSW 6.4 km/h 8 km/h 52% 0 mm 0.0 W/m2
02:13 22.8 °C 12.4 °C 1002.3 hPa SW 14.3 km/h 19.3 km/h 52% 0 mm 0.0 W/m2
02:19 22.8 °C 12.1 °C 1002.3 hPa SW 14.3 km/h 19.3 km/h 51% 0 mm 0.0 W/m2
02:24 22.7 °C 12 °C 1002.3 hPa SW 17.7 km/h 19.3 km/h 51% 0 mm 0.0 W/m2
02:29 22.6 °C 11.9 °C 1001.9 hPa SW 14.3 km/h 19.3 km/h 51% 0 mm 0.0 W/m2
02:34 22.5 °C 12.2 °C 1001.9 hPa SSW 17.7 km/h 19.3 km/h 52% 0 mm 0.0 W/m2
02:39 22.4 °C 12.1 °C 1001.9 hPa SSW 14.3 km/h 14.5 km/h 52% 0 mm 0.0 W/m2
02:44 22.4 °C 12.1 °C 1001.9 hPa SSW 13 km/h 14.5 km/h 52% 0 mm 0.0 W/m2
02:49 22.3 °C 12 °C 1001.9 hPa SSW 13 km/h 17.7 km/h 52% 0 mm 0.0 W/m2
02:54 22.3 °C 12 °C 1001.9 hPa SSW 11.1 km/h 16.1 km/h 52% 0 mm 0.0 W/m2
02:59 22.3 °C 12 °C 1001.9 hPa SSW 7.9 km/h 17.7 km/h 52% 0 mm 0.0 W/m2
03:05 22.3 °C 12 °C 1001.9 hPa SSW 11.1 km/h 14.5 km/h 52% 0 mm 0.0 W/m2
03:15 22.2 °C 12.2 °C 1001.6 hPa SW 13 km/h 16.1 km/h 53% 0 mm 0.0 W/m2
03:20 22.1 °C 12.1 °C 1001.6 hPa SW 17.7 km/h 17.7 km/h 53% 0 mm 0.0 W/m2
03:30 22.1 °C 12.1 °C 1001.6 hPa SW 9.7 km/h 17.7 km/h 53% 0 mm 0.0 W/m2
03:35 22 °C 12 °C 1001.6 hPa SW 7.9 km/h 14.5 km/h 53% 0 mm 0.0 W/m2
03:45 21.9 °C 12.2 °C 1001.6 hPa SW 13 km/h 16.1 km/h 54% 0 mm 0.0 W/m2
03:50 21.9 °C 12.2 °C 1001.6 hPa SW 14.3 km/h 17.7 km/h 54% 0 mm 0.0 W/m2
03:55 21.9 °C 12.2 °C 1001.2 hPa SW 9.7 km/h 14.5 km/h 54% 0 mm 0.0 W/m2
04:00 21.9 °C 12.2 °C 1001.6 hPa SW 11.1 km/h 12.9 km/h 54% 0 mm 0.0 W/m2
04:05 21.9 °C 12.2 °C 1001.6 hPa SW 11.1 km/h 16.1 km/h 54% 0 mm 0.0 W/m2
04:10 21.9 °C 12.2 °C 1001.6 hPa SW 13 km/h 13 km/h 54% 0 mm 0.0 W/m2
04:15 21.9 °C 12.2 °C 1001.6 hPa SW 9.7 km/h 16.1 km/h 54% 0 mm 0.0 W/m2
04:20 21.8 °C 12.1 °C 1001.6 hPa SW 11.1 km/h 16.1 km/h 54% 0 mm 0.0 W/m2
04:26 21.8 °C 12.1 °C 1001.6 hPa SW 11.1 km/h 16.1 km/h 54% 0 mm 0.0 W/m2
04:31 21.8 °C 12.4 °C 1001.6 hPa SW 9.7 km/h 14.5 km/h 55% 0 mm 0.0 W/m2
04:36 21.8 °C 12.4 °C 1001.6 hPa SW 7.9 km/h 12.9 km/h 55% 0 mm 0.0 W/m2
04:41 21.8 °C 12.4 °C 1001.6 hPa SW 6.4 km/h 11.3 km/h 55% 0 mm 0.0 W/m2
04:46 21.7 °C 12.3 °C 1001.6 hPa SW 4.7 km/h 6.4 km/h 55% 0 mm 0.0 W/m2
04:51 21.7 °C 12.3 °C 1001.9 hPa Calm     55% 0 mm 0.0 W/m2
04:56 21.7 °C 12.3 °C 1001.9 hPa Calm     55% 0 mm 0.0 W/m2
05:01 21.6 °C 12.2 °C 1001.9 hPa Calm     55% 0 mm 0.0 W/m2
05:06 21.4 °C 12 °C 1001.9 hPa SW 4.7 km/h 6.4 km/h 55% 0 mm 0.0 W/m2
05:11 21.3 °C 12.2 °C 1001.9 hPa SW 6.4 km/h 8 km/h 56% 0 mm 0.0 W/m2
05:17 21.3 °C 12.2 °C 1001.9 hPa SW 4.7 km/h 6.4 km/h 56% 0 mm 0.0 W/m2
05:22 21.2 °C 12.1 °C 1001.9 hPa SW 4.7 km/h 6.4 km/h 56% 0 mm 0.0 W/m2
05:27 21.2 °C 12.3 °C 1001.9 hPa SW 7.9 km/h 8 km/h 57% 0 mm 0.0 W/m2
05:37 21.2 °C 12.3 °C 1001.6 hPa SW 7.9 km/h 11.3 km/h 57% 0 mm 0.0 W/m2
05:42 21.2 °C 12.3 °C 1001.9 hPa SW 6.4 km/h 8 km/h 57% 0 mm 0.0 W/m2
05:47 21.2 °C 12.3 °C 1001.9 hPa SW 7.9 km/h 11.3 km/h 57% 0 mm 0.0 W/m2
05:52 21.2 °C 12.3 °C 1001.9 hPa SW 6.4 km/h 9.7 km/h 57% 0 mm 0.0 W/m2
05:57 21.1 °C 12.2 °C 1001.9 hPa SW 6.4 km/h 8 km/h 57% 0 mm 0.0 W/m2
06:02 21.1 °C 12.2 °C 1001.9 hPa SW 6.4 km/h 8 km/h 57% 0 mm 0.0 W/m2
06:12 20.9 °C 12.3 °C 1001.9 hPa SW 4.7 km/h 8 km/h 58% 0 mm 0.0 W/m2
06:17 20.9 °C 12.3 °C 1001.9 hPa Calm   4.8 km/h 58% 0 mm 0.0 W/m2
06:22 20.8 °C 12.5 °C 1001.9 hPa Calm     59% 0 mm 0.0 W/m2
06:28 20.7 °C 12.4 °C 1001.9 hPa Calm     59% 0 mm 0.0 W/m2
06:34 20.6 °C 12.3 °C 1001.9 hPa Calm     59% 0 mm 0.0 W/m2
06:40 20.5 °C 12.2 °C 1001.9 hPa Calm     59% 0 mm 0.0 W/m2
06:48 20.3 °C 12.3 °C 1001.9 hPa Calm     60% 0 mm 9.0 W/m2
06:58 20.4 °C 12.4 °C 1001.9 hPa Calm     60% 0 mm 19.0 W/m2
07:04 20.6 °C 12.6 °C 1002.3 hPa Calm     60% 0 mm 23.0 W/m2
07:09 20.7 °C 12.4 °C 1002.3 hPa Calm     59% 0 mm 39.0 W/m2
07:14 20.8 °C 12.5 °C 1002.3 hPa SW 7.9 km/h 12.9 km/h 59% 0 mm 51.0 W/m2
07:19 20.9 °C 12.3 °C 1002.3 hPa SW 7.9 km/h 9.7 km/h 58% 0 mm 63.0 W/m2
07:24 20.9 °C 12.3 °C 1002.3 hPa SW 9.7 km/h 11.3 km/h 58% 0 mm 90.0 W/m2
07:30 21 °C 12.4 °C 1002.3 hPa SW 4.7 km/h 9.7 km/h 58% 0 mm 109.0 W/m2
07:39 21.1 °C 12.5 °C 1002.6 hPa SW 7.9 km/h 11.3 km/h 58% 0 mm 130.0 W/m2
07:47 21.2 °C 12.6 °C 1002.6 hPa SW 11.1 km/h 12.9 km/h 58% 0 mm 171.0 W/m2
07:58 21.1 °C 12.8 °C 1002.6 hPa SW 9.7 km/h 16.1 km/h 59% 0 mm 211.0 W/m2
08:07 20.8 °C 13 °C 1002.6 hPa SW 17.7 km/h 17.7 km/h 61% 0 mm 251.0 W/m2
08:17 20.7 °C 13.2 °C 1002.6 hPa SW 14.3 km/h 17.7 km/h 62% 0 mm 264.0 W/m2
08:22 20.7 °C 13.2 °C 1002.6 hPa SW 16.3 km/h 16.3 km/h 62% 0 mm 299.0 W/m2
08:32 21 °C 13.2 °C 1002.9 hPa SW 19.5 km/h 19.5 km/h 61% 0 mm 345.0 W/m2
08:40 21.1 °C 13.3 °C 1002.9 hPa SW 17.7 km/h 19.3 km/h 61% 0 mm 378.0 W/m2
08:51 21.4 °C 13.3 °C 1002.9 hPa WSW 13 km/h 16.1 km/h 60% 0 mm 413.0 W/m2
08:57 21.4 °C 13.3 °C 1002.9 hPa WSW 13 km/h 13 km/h 60% 0 mm 413.0 W/m2
09:04 21.4 °C 13.3 °C 1002.9 hPa SW 11.1 km/h -1607.7 km/h 60% 0 mm 413.0 W/m2
09:16 22 °C 13.4 °C 1002.9 hPa SW 13 km/h 13 km/h 58% 0 mm 468.0 W/m2
09:32 22 °C 12.5 °C 1002.9 hPa North -1609.1 km/h -1607.7 km/h 55% 0 mm 504.0 W/m2
09:47 23.6 °C 13.5 °C 1002.9 hPa SW 9.7 km/h 9.7 km/h 53% 0 mm 504.0 W/m2
10:34 25.3 °C 13.5 °C 1002.6 hPa SW 16.3 km/h 19.3 km/h 48% 0 mm 712.0 W/m2
10:48 25.6 °C 13.5 °C 1002.3 hPa SW 9.7 km/h 17.7 km/h 47% 0 mm 742.0 W/m2
11:26 26.7 °C 13.8 °C 1002.3 hPa SW 14.3 km/h 16.1 km/h 45% 0 mm 824.0 W/m2
12:03 27.8 °C 13.7 °C 1001.9 hPa SW 6.4 km/h 11.3 km/h 42% 0 mm 888.0 W/m2
12:12 28.3 °C 13.8 °C 1001.9 hPa SW 11.1 km/h 16.1 km/h 41% 0 mm 898.0 W/m2
12:22 28.5 °C 14.3 °C 1001.6 hPa SW 9.7 km/h 12.9 km/h 42% 0 mm 898.0 W/m2
12:33 28.7 °C 14.1 °C 1001.6 hPa SW 9.7 km/h 9.7 km/h 41% 0 mm 898.0 W/m2
12:55 29.3 °C 14.3 °C 1001.2 hPa SW 7.9 km/h 14.5 km/h 40% 0 mm 926.0 W/m2
13:19 30.1 °C 14.2 °C 1001.2 hPa SW 9.7 km/h -1607.7 km/h 38% 0 mm 928.0 W/m2
13:29 30.4 °C 14.5 °C 1000.9 hPa SW 9.7 km/h 9.7 km/h 38% 0 mm 928.0 W/m2
13:57 31.4 °C 14.1 °C 1000.6 hPa SW 17.7 km/h 19.3 km/h 35% 0 mm 905.0 W/m2
14:28 31.7 °C 14.4 °C 1000.2 hPa North -1609.1 km/h -1607.7 km/h 35% 0 mm 895.0 W/m2
14:59 32.5 °C 13.7 °C 999.5 hPa SSW 16.3 km/h -1607.7 km/h 32% 0 mm 844.0 W/m2
15:14 32.4 °C 12.6 °C 999.5 hPa South 19.5 km/h 29 km/h 30% 0 mm 789.0 W/m2
15:40 32.2 °C 11.4 °C 999.5 hPa SSW 32 km/h 38.6 km/h 28% 0 mm 714.0 W/m2
15:50 31.8 °C 10.5 °C 999.5 hPa SSW 35.2 km/h 43.5 km/h 27% 0 mm 680.0 W/m2
16:02 31.8 °C 9.9 °C 999.5 hPa SSW 35.2 km/h 40.2 km/h 26% 0 mm 650.0 W/m2
16:28 31.1 °C 9.9 °C 999.5 hPa SSW 38.5 km/h 40.2 km/h 27% 0 mm 580.0 W/m2
16:57 30.5 °C 10.5 °C 999.9 hPa South 25.9 km/h 40.2 km/h 29% 0 mm 489.0 W/m2
17:05 30.2 °C 9.7 °C 999.9 hPa SSW 25.9 km/h 38.6 km/h 28% 0 mm 455.0 W/m2
17:15 29.9 °C 9.4 °C 1000.2 hPa SSW 30.6 km/h 38.6 km/h 28% 0 mm 420.0 W/m2
17:26 29.4 °C 10 °C 1000.2 hPa SSW 35.2 km/h 37 km/h 30% 0 mm 388.0 W/m2
17:46 28.9 °C 10.1 °C 1000.6 hPa South 30.6 km/h 40.2 km/h 31% 0 mm 320.0 W/m2
18:08 28.3 °C 7 °C 1000.9 hPa South 27.4 km/h 37 km/h 26% 0 mm 244.0 W/m2
18:24 28.1 °C 6.2 °C 1001.2 hPa SSW 20.9 km/h 32.2 km/h 25% 0 mm 176.0 W/m2
18:39 27.9 °C 6.6 °C 1001.6 hPa SSW 25.9 km/h 32.2 km/h 26% 0 mm 114.0 W/m2
18:53 27.3 °C 5 °C 1001.9 hPa SSW 25.9 km/h 33.8 km/h 24% 0 mm 60.0 W/m2
19:03 26.9 °C 4.6 °C 1002.3 hPa SSW 25.9 km/h 37 km/h 24% 0 mm 30.0 W/m2
19:09 26.7 °C 3.2 °C 1002.3 hPa SW 20.9 km/h 32.2 km/h 22% 0 mm 14.0 W/m2
19:15 26.6 °C 4.4 °C 1002.6 hPa SSW 27.4 km/h 32.2 km/h 24% 0 mm 12.0 W/m2
19:23 26.4 °C 5.9 °C 1002.6 hPa SSW 27.4 km/h 29 km/h 27% 0 mm 9.0 W/m2
19:33 25.8 °C 6.9 °C 1002.9 hPa SW 22.7 km/h 32.2 km/h 30% 0 mm 0.0 W/m2
19:59 24.2 °C 9 °C 1003.3 hPa SW 28.8 km/h 37 km/h 38% 0 mm 0.0 W/m2
20:14 23.5 °C 9.8 °C 1003.9 hPa SSW 22.7 km/h 32.2 km/h 42% 0 mm 0.0 W/m2
20:50 21.7 °C 10.5 °C 1004.6 hPa SSW 24.1 km/h 33.8 km/h 49% 0 mm 0.0 W/m2
21:04 21 °C 11.3 °C 1005 hPa SSW 25.9 km/h 32.2 km/h 54% 0 mm 0.0 W/m2
21:13 20.5 °C 11.4 °C 1005.3 hPa SSW 27.4 km/h 33.8 km/h 56% 0 mm 0.0 W/m2
21:21 20.2 °C 11.7 °C 1005.6 hPa SSW 20.9 km/h 25.7 km/h 58% 0 mm 0.0 W/m2
21:29 20.1 °C 11.8 °C 1005.6 hPa SSW 24.1 km/h 25.7 km/h 59% 0 mm 0.0 W/m2
21:35 19.9 °C 11.9 °C 1005.6 hPa SSW 25.9 km/h 27.4 km/h 60% 0 mm 0.0 W/m2
21:45 19.5 °C 11.8 °C 1005.6 hPa SSW 20.9 km/h 29 km/h 61% 0 mm 0.0 W/m2
21:50 19.4 °C 11.9 °C 1005.6 hPa SSW 19.5 km/h 24.1 km/h 62% 0 mm 0.0 W/m2
21:55 19.3 °C 12.1 °C 1006 hPa SSW 22.7 km/h 29 km/h 63% 0 mm 0.0 W/m2
22:05 19.1 °C 11.9 °C 1006 hPa SSW 19.5 km/h 25.7 km/h 63% 0 mm 0.0 W/m2
22:10 18.9 °C 11.9 °C 1006 hPa SSW 16.3 km/h 27.4 km/h 64% 0 mm 0.0 W/m2
22:15 18.8 °C 11.8 °C 1006.3 hPa SSW 16.3 km/h 24.1 km/h 64% 0 mm 0.0 W/m2
22:20 18.7 °C 12 °C 1006.3 hPa SSW 22.7 km/h 27.4 km/h 65% 0 mm 0.0 W/m2
22:25 18.7 °C 12 °C 1006.3 hPa SSW 20.9 km/h 29 km/h 65% 0 mm 0.0 W/m2
22:30 18.6 °C 11.9 °C 1006 hPa SSW 20.9 km/h 27.4 km/h 65% 0 mm 0.0 W/m2
22:35 18.5 °C 12 °C 1006.3 hPa South 27.4 km/h 29 km/h 66% 0 mm 0.0 W/m2
22:40 18.4 °C 11.9 °C 1006.3 hPa South 24.1 km/h 24.1 km/h 66% 0 mm 0.0 W/m2
22:46 18.3 °C 12.1 °C 1006.3 hPa South 13 km/h 20.9 km/h 67% 0 mm 0.0 W/m2
22:53 18.3 °C 11.8 °C 1006.7 hPa South 22.7 km/h 30.6 km/h 66% 0 mm 0.0 W/m2
23:04 18.1 °C 11.6 °C 1006.7 hPa South 19.5 km/h 25.7 km/h 66% 0 mm 0.0 W/m2
23:11 17.9 °C 11.9 °C 1006.7 hPa SSW 17.7 km/h 30.6 km/h 68% 0 mm 0.0 W/m2
23:20 17.7 °C 11.7 °C 1006.7 hPa South 24.1 km/h 27.4 km/h 68% 0 mm 0.0 W/m2
23:25 17.6 °C 11.6 °C 1006.7 hPa South 16.3 km/h 27.4 km/h 68% 0 mm 0.0 W/m2
23:30 17.4 °C 11.7 °C 1006.7 hPa South 20.9 km/h 27.4 km/h 69% 0 mm 0.0 W/m2
23:40 17.2 °C 11.5 °C 1006.7 hPa South 19.5 km/h 27.4 km/h 69% 0 mm 0.0 W/m2
23:50 17.1 °C 11.6 °C 1007 hPa South 20.9 km/h 27.4 km/h 70% 0 mm 0.0 W/m2
Canyon Roadhouse, Fishriver Canyon, Namibia
Compliments of Weather Underground - 2.5 mb